createdAt,value
2022-12-03T00:00:39.331Z,11.40
2022-12-03T00:01:39.328Z,10.30
2022-12-03T00:02:39.538Z,9.70
2022-12-03T00:03:39.523Z,10.80
2022-12-03T00:04:39.286Z,9.30
2022-12-03T00:05:41.927Z,11.90
2022-12-03T00:06:39.282Z,9.40
2022-12-03T00:07:39.283Z,9.50
2022-12-03T00:08:39.355Z,9.60
2022-12-03T00:09:39.278Z,13.00
2022-12-03T00:10:39.213Z,8.50
2022-12-03T00:11:39.213Z,9.20
2022-12-03T00:12:39.212Z,8.90
2022-12-03T00:13:39.277Z,9.70
2022-12-03T00:14:44.437Z,9.60
2022-12-03T00:15:39.230Z,7.60
2022-12-03T00:16:39.178Z,7.80
2022-12-03T00:17:39.186Z,8.80
2022-12-03T00:18:39.137Z,7.30
2022-12-03T00:19:39.279Z,8.30
2022-12-03T00:20:39.104Z,11.10
2022-12-03T00:21:39.144Z,10.40
2022-12-03T00:22:39.076Z,9.20
2022-12-03T00:23:42.298Z,8.80
2022-12-03T00:24:39.071Z,9.50
2022-12-03T00:25:39.095Z,8.10
2022-12-03T00:26:39.067Z,8.10
2022-12-03T00:27:39.049Z,10.30
2022-12-03T00:28:39.018Z,8.90
2022-12-03T00:29:39.049Z,7.20
2022-12-03T00:30:38.990Z,8.40
2022-12-03T00:31:39.082Z,8.70
2022-12-03T00:32:39.007Z,7.20
2022-12-03T00:33:38.999Z,8.40
2022-12-03T00:34:39.000Z,7.20
2022-12-03T00:35:38.976Z,7.30
2022-12-03T00:36:38.989Z,7.30
2022-12-03T00:37:38.918Z,6.80
2022-12-03T00:38:38.958Z,6.70
2022-12-03T00:39:38.892Z,8.40
2022-12-03T00:40:38.928Z,6.20
2022-12-03T00:41:38.894Z,6.70
2022-12-03T00:42:38.884Z,6.60
2022-12-03T00:43:38.875Z,7.00
2022-12-03T00:44:38.914Z,5.70
2022-12-03T00:45:38.825Z,6.40
2022-12-03T00:46:38.942Z,7.60
2022-12-03T00:47:38.811Z,6.30
2022-12-03T00:48:38.822Z,5.90
2022-12-03T00:49:38.898Z,7.00
2022-12-03T00:50:38.833Z,6.90
2022-12-03T00:51:38.775Z,6.10
2022-12-03T00:52:38.781Z,5.70
2022-12-03T00:53:38.768Z,7.20
2022-12-03T00:54:38.768Z,6.90
2022-12-03T00:55:38.746Z,7.50
2022-12-03T00:56:38.916Z,5.40
2022-12-03T00:57:38.705Z,6.60
2022-12-03T00:58:38.743Z,6.60
2022-12-03T00:59:38.682Z,5.00
2022-12-03T01:00:38.697Z,8.40
2022-12-03T01:01:38.811Z,6.50
2022-12-03T01:02:38.681Z,5.50
2022-12-03T01:03:38.671Z,6.00
2022-12-03T01:04:38.728Z,7.30
2022-12-03T01:05:38.614Z,6.20
2022-12-03T01:06:38.647Z,7.30
2022-12-03T01:07:38.658Z,6.40
2022-12-03T01:08:38.645Z,8.20
2022-12-03T01:09:38.579Z,6.40
2022-12-03T01:10:38.613Z,6.40
2022-12-03T01:11:38.581Z,7.40
2022-12-03T01:12:38.568Z,8.30
2022-12-03T01:13:38.563Z,6.40
2022-12-03T01:14:38.560Z,6.50
2022-12-03T01:15:38.578Z,6.10
2022-12-03T01:16:38.667Z,7.70
2022-12-03T01:17:38.494Z,7.00
2022-12-03T01:18:38.546Z,6.30
2022-12-03T01:19:42.227Z,5.60
2022-12-03T01:20:38.497Z,5.10
2022-12-03T01:21:38.685Z,5.50
2022-12-03T01:22:38.492Z,5.00
2022-12-03T01:23:38.428Z,6.10
2022-12-03T01:24:38.483Z,5.70
2022-12-03T01:25:38.475Z,5.30
2022-12-03T01:26:38.423Z,6.20
2022-12-03T01:27:38.417Z,5.40
2022-12-03T01:28:38.431Z,5.20
2022-12-03T01:29:38.362Z,5.10
2022-12-03T01:30:38.740Z,5.30
2022-12-03T01:31:38.400Z,4.90
2022-12-03T01:32:38.359Z,6.80
2022-12-03T01:33:38.346Z,4.60
2022-12-03T01:34:38.342Z,4.50
2022-12-03T01:35:38.339Z,5.10
2022-12-03T01:36:38.341Z,5.30
2022-12-03T01:37:38.288Z,6.50
2022-12-03T01:38:38.324Z,5.70
2022-12-03T01:39:38.285Z,7.20
2022-12-03T01:40:38.298Z,5.00
2022-12-03T01:41:38.264Z,5.20
2022-12-03T01:42:38.251Z,4.90
2022-12-03T01:43:38.248Z,4.60
2022-12-03T01:44:38.271Z,4.40
2022-12-03T01:45:38.202Z,5.40
2022-12-03T01:46:38.337Z,4.90
2022-12-03T01:47:38.177Z,5.90
2022-12-03T01:48:38.185Z,5.30
2022-12-03T01:49:38.179Z,4.80
2022-12-03T01:50:38.177Z,4.30
2022-12-03T01:51:38.189Z,4.00
2022-12-03T01:52:38.174Z,5.10
2022-12-03T01:53:38.108Z,5.40
2022-12-03T01:54:38.144Z,4.60
2022-12-03T01:55:38.129Z,4.30
2022-12-03T01:56:38.143Z,4.00
2022-12-03T01:57:38.158Z,4.20
2022-12-03T01:58:38.131Z,4.40
2022-12-03T01:59:38.046Z,4.90
2022-12-03T02:00:38.224Z,4.30
2022-12-03T02:01:38.177Z,5.30
2022-12-03T02:02:38.061Z,4.70
2022-12-03T02:03:38.099Z,4.30
2022-12-03T02:04:38.048Z,5.40
2022-12-03T02:05:38.031Z,4.60
2022-12-03T02:06:38.047Z,4.30
2022-12-03T02:07:38.104Z,6.10
2022-12-03T02:08:37.988Z,4.90
2022-12-03T02:09:38.000Z,4.10
2022-12-03T02:10:38.057Z,4.00
2022-12-03T02:11:38.054Z,4.70
2022-12-03T02:12:37.938Z,4.00
2022-12-03T02:13:37.947Z,4.30
2022-12-03T02:14:37.948Z,3.50
2022-12-03T02:15:37.914Z,4.60
2022-12-03T02:16:37.992Z,3.60
2022-12-03T02:17:37.853Z,3.40
2022-12-03T02:18:37.947Z,6.60
2022-12-03T02:19:38.673Z,3.80
2022-12-03T02:20:37.867Z,4.30
2022-12-03T02:21:37.855Z,3.60
2022-12-03T02:22:37.827Z,4.30
2022-12-03T02:23:37.827Z,3.50
2022-12-03T02:24:37.843Z,3.50
2022-12-03T02:25:37.904Z,6.20
2022-12-03T02:26:37.807Z,3.60
2022-12-03T02:27:37.773Z,4.30
2022-12-03T02:28:37.792Z,3.00
2022-12-03T02:29:37.731Z,3.80
2022-12-03T02:30:37.775Z,3.70
2022-12-03T02:31:37.785Z,3.20
2022-12-03T02:32:37.740Z,3.40
2022-12-03T02:33:37.716Z,3.30
2022-12-03T02:34:37.741Z,3.80
2022-12-03T02:35:37.703Z,3.30
2022-12-03T02:36:37.722Z,5.80
2022-12-03T02:37:37.657Z,3.00
2022-12-03T02:38:37.687Z,5.40
2022-12-03T02:39:37.628Z,4.00
2022-12-03T02:40:37.666Z,3.40
2022-12-03T02:41:37.634Z,7.30
2022-12-03T02:42:37.634Z,3.60
2022-12-03T02:43:37.613Z,3.40
2022-12-03T02:44:37.643Z,3.80
2022-12-03T02:45:37.559Z,3.80
2022-12-03T02:46:37.708Z,3.50
2022-12-03T02:47:37.536Z,3.40
2022-12-03T02:48:37.556Z,3.00
2022-12-03T02:49:37.551Z,3.60
2022-12-03T02:50:37.556Z,3.30
2022-12-03T02:51:37.672Z,4.20
2022-12-03T02:52:37.555Z,3.20
2022-12-03T02:53:37.475Z,4.10
2022-12-03T02:54:37.586Z,3.50
2022-12-03T02:55:37.683Z,3.10
2022-12-03T02:56:37.482Z,4.70
2022-12-03T02:57:37.459Z,2.90
2022-12-03T02:58:37.494Z,3.20
2022-12-03T02:59:37.412Z,3.50
2022-12-03T03:00:37.484Z,3.40
2022-12-03T03:01:37.575Z,3.40
2022-12-03T03:02:37.483Z,3.00
2022-12-03T03:03:37.398Z,3.10
2022-12-03T03:04:37.424Z,3.10
2022-12-03T03:05:37.450Z,3.10
2022-12-03T03:06:37.390Z,3.00
2022-12-03T03:07:37.532Z,2.80
2022-12-03T03:08:37.354Z,2.80
2022-12-03T03:09:37.334Z,4.00
2022-12-03T03:10:37.331Z,2.90
2022-12-03T03:11:37.471Z,2.60
2022-12-03T03:12:39.448Z,3.20
2022-12-03T03:13:37.267Z,2.70
2022-12-03T03:14:37.307Z,2.50
2022-12-03T03:15:37.285Z,2.80
2022-12-03T03:16:37.352Z,3.00
2022-12-03T03:17:37.224Z,2.80
2022-12-03T03:18:37.287Z,2.90
2022-12-03T03:19:37.210Z,3.20
2022-12-03T03:20:37.235Z,3.10
2022-12-03T03:21:37.226Z,3.00
2022-12-03T03:22:37.199Z,2.80
2022-12-03T03:23:37.193Z,2.60
2022-12-03T03:24:37.206Z,2.60
2022-12-03T03:25:37.141Z,3.20
2022-12-03T03:26:37.191Z,2.60
2022-12-03T03:27:37.117Z,2.60
2022-12-03T03:28:37.165Z,3.10
2022-12-03T03:29:37.136Z,2.40
2022-12-03T03:30:37.162Z,2.80
2022-12-03T03:31:37.128Z,3.20
2022-12-03T03:32:37.092Z,2.80
2022-12-03T03:33:37.086Z,2.70
2022-12-03T03:34:37.074Z,3.00
2022-12-03T03:35:37.064Z,3.20
2022-12-03T03:36:37.084Z,2.70
2022-12-03T03:37:37.032Z,3.40
2022-12-03T03:38:37.085Z,3.10
2022-12-03T03:39:37.001Z,3.20
2022-12-03T03:40:37.060Z,3.20
2022-12-03T03:41:36.992Z,2.90
2022-12-03T03:42:37.027Z,2.70
2022-12-03T03:43:37.371Z,2.70
2022-12-03T03:44:37.003Z,3.30
2022-12-03T03:45:36.991Z,2.40
2022-12-03T03:46:36.976Z,2.70
2022-12-03T03:47:36.908Z,2.50
2022-12-03T03:48:37.025Z,2.30
2022-12-03T03:49:36.919Z,2.70
2022-12-03T03:50:36.905Z,2.90
2022-12-03T03:51:36.911Z,2.70
2022-12-03T03:52:36.913Z,2.80
2022-12-03T03:53:36.853Z,2.90
2022-12-03T03:54:36.898Z,2.60
2022-12-03T03:55:36.855Z,3.10
2022-12-03T03:56:36.843Z,2.50
2022-12-03T03:57:36.845Z,2.40
2022-12-03T03:58:36.844Z,3.20
2022-12-03T03:59:36.831Z,2.50
2022-12-03T04:00:36.846Z,4.20
2022-12-03T04:01:36.849Z,2.80
2022-12-03T04:02:36.793Z,3.10
2022-12-03T04:03:36.875Z,3.60
2022-12-03T04:04:36.976Z,2.90
2022-12-03T04:05:36.736Z,2.60
2022-12-03T04:06:36.771Z,2.60
2022-12-03T04:07:36.806Z,2.50
2022-12-03T04:08:36.759Z,2.50
2022-12-03T04:09:36.729Z,2.70
2022-12-03T04:10:36.781Z,2.90
2022-12-03T04:11:36.709Z,2.40
2022-12-03T04:12:36.767Z,2.30
2022-12-03T04:13:36.639Z,2.30
2022-12-03T04:14:36.812Z,2.60
2022-12-03T04:15:36.631Z,2.50
2022-12-03T04:16:36.756Z,2.40
2022-12-03T04:17:36.641Z,2.50
2022-12-03T04:18:36.649Z,2.50
2022-12-03T04:19:36.575Z,2.40
2022-12-03T04:20:36.587Z,2.40
2022-12-03T04:21:36.688Z,2.30
2022-12-03T04:22:36.600Z,2.30
2022-12-03T04:23:36.566Z,2.30
2022-12-03T04:24:36.734Z,2.50
2022-12-03T04:25:36.513Z,2.40
2022-12-03T04:26:36.557Z,2.30
2022-12-03T04:27:36.537Z,2.80
2022-12-03T04:28:36.509Z,2.40
2022-12-03T04:29:36.483Z,2.40
2022-12-03T04:30:36.563Z,2.40
2022-12-03T04:31:36.472Z,2.90
2022-12-03T04:32:36.515Z,2.40
2022-12-03T04:33:36.432Z,2.40
2022-12-03T04:34:36.659Z,4.30
2022-12-03T04:35:36.484Z,2.20
2022-12-03T04:36:36.461Z,2.40
2022-12-03T04:37:36.405Z,2.40
2022-12-03T04:38:36.427Z,2.30
2022-12-03T04:39:36.414Z,2.20
2022-12-03T04:40:36.373Z,2.30
2022-12-03T04:41:36.358Z,2.40
2022-12-03T04:42:36.373Z,2.30
2022-12-03T04:43:36.420Z,2.60
2022-12-03T04:44:36.605Z,2.50
2022-12-03T04:45:36.411Z,2.20
2022-12-03T04:46:36.342Z,2.30
2022-12-03T04:47:39.912Z,2.40
2022-12-03T04:48:36.326Z,2.40
2022-12-03T04:49:36.280Z,2.40
2022-12-03T04:50:36.276Z,2.20
2022-12-03T04:51:36.256Z,2.40
2022-12-03T04:52:36.236Z,2.10
2022-12-03T04:53:36.497Z,1.90
2022-12-03T04:54:36.204Z,2.20
2022-12-03T04:55:36.246Z,2.80
2022-12-03T04:56:36.225Z,2.80
2022-12-03T04:57:36.245Z,2.50
2022-12-03T04:58:36.188Z,2.30
2022-12-03T04:59:36.174Z,2.40
2022-12-03T05:00:36.139Z,2.20
2022-12-03T05:01:36.377Z,2.20
2022-12-03T05:02:36.228Z,2.10
2022-12-03T05:03:36.163Z,2.20
2022-12-03T05:04:36.121Z,2.10
2022-12-03T05:05:36.154Z,2.20
2022-12-03T05:06:36.094Z,2.00
2022-12-03T05:07:36.209Z,2.30
2022-12-03T05:08:36.098Z,2.00
2022-12-03T05:09:36.090Z,2.30
2022-12-03T05:10:36.058Z,2.50
2022-12-03T05:11:36.061Z,3.10
2022-12-03T05:12:36.010Z,2.30
2022-12-03T05:13:36.048Z,2.10
2022-12-03T05:14:36.006Z,3.20
2022-12-03T05:15:36.033Z,2.20
2022-12-03T05:16:36.050Z,2.20
2022-12-03T05:17:35.993Z,2.20
2022-12-03T05:18:35.969Z,1.90
2022-12-03T05:19:36.015Z,1.90
2022-12-03T05:20:35.921Z,2.60
2022-12-03T05:21:35.969Z,2.10
2022-12-03T05:22:35.992Z,2.10
2022-12-03T05:23:35.930Z,2.00
2022-12-03T05:24:35.888Z,2.30
2022-12-03T05:25:35.930Z,2.50
2022-12-03T05:26:35.853Z,2.10
2022-12-03T05:27:35.913Z,2.20
2022-12-03T05:28:35.877Z,2.70
2022-12-03T05:29:35.851Z,2.50
2022-12-03T05:30:35.924Z,2.20
2022-12-03T05:31:35.847Z,2.30
2022-12-03T05:32:35.794Z,3.20
2022-12-03T05:33:40.829Z,2.40
2022-12-03T05:34:35.795Z,2.30
2022-12-03T05:35:35.848Z,2.30
2022-12-03T05:36:35.776Z,2.30
2022-12-03T05:37:35.807Z,1.90
2022-12-03T05:38:35.727Z,2.20
2022-12-03T05:39:35.771Z,2.20
2022-12-03T05:40:35.736Z,2.40
2022-12-03T05:41:35.750Z,2.20
2022-12-03T05:42:35.717Z,2.10
2022-12-03T05:43:35.712Z,1.80
2022-12-03T05:44:35.673Z,2.40
2022-12-03T05:45:35.721Z,2.20
2022-12-03T05:46:35.748Z,2.10
2022-12-03T05:47:35.702Z,2.20
2022-12-03T05:48:35.656Z,2.00
2022-12-03T05:49:35.650Z,2.10
2022-12-03T05:50:35.673Z,2.10
2022-12-03T05:51:35.639Z,2.30
2022-12-03T05:52:35.581Z,2.10
2022-12-03T05:53:35.655Z,2.10
2022-12-03T05:54:35.572Z,2.60
2022-12-03T05:55:35.613Z,2.10
2022-12-03T05:56:35.595Z,2.20
2022-12-03T05:57:35.656Z,2.40
2022-12-03T05:58:35.546Z,2.20
2022-12-03T05:59:35.615Z,2.30
2022-12-03T06:00:41.816Z,2.10
2022-12-03T06:01:35.574Z,2.80
2022-12-03T06:02:35.636Z,2.20
2022-12-03T06:03:35.708Z,2.20
2022-12-03T06:04:35.551Z,2.10
2022-12-03T06:05:35.468Z,2.10
2022-12-03T06:06:35.478Z,2.30
2022-12-03T06:07:35.521Z,2.60
2022-12-03T06:08:35.545Z,1.80
2022-12-03T06:09:35.454Z,3.00
2022-12-03T06:10:35.445Z,3.50
2022-12-03T06:11:35.487Z,4.00
2022-12-03T06:12:35.387Z,2.20
2022-12-03T06:13:35.437Z,2.30
2022-12-03T06:14:35.356Z,6.20
2022-12-03T06:15:40.418Z,9.30
2022-12-03T06:16:35.391Z,4.50
2022-12-03T06:17:35.354Z,2.60
2022-12-03T06:18:35.337Z,4.90
2022-12-03T06:19:35.331Z,2.00
2022-12-03T06:20:35.316Z,2.70
2022-12-03T06:21:35.397Z,2.50
2022-12-03T06:22:35.330Z,8.90
2022-12-03T06:23:35.406Z,10.70
2022-12-03T06:24:35.306Z,2.90
2022-12-03T06:25:36.026Z,7.40
2022-12-03T06:26:35.219Z,3.80
2022-12-03T06:27:35.263Z,6.00
2022-12-03T06:28:35.231Z,6.40
2022-12-03T06:29:35.216Z,10.40
2022-12-03T06:30:35.207Z,9.90
2022-12-03T06:31:35.268Z,12.80
2022-12-03T06:32:35.151Z,12.70
2022-12-03T06:33:35.201Z,7.90
2022-12-03T06:34:35.133Z,11.50
2022-12-03T06:35:35.182Z,5.30
2022-12-03T06:36:35.141Z,6.80
2022-12-03T06:37:35.189Z,8.20
2022-12-03T06:38:35.140Z,5.70
2022-12-03T06:39:35.108Z,6.80
2022-12-03T06:40:35.134Z,7.10
2022-12-03T06:41:35.115Z,10.60
2022-12-03T06:42:35.107Z,4.10
2022-12-03T06:43:35.087Z,4.40
2022-12-03T06:44:35.024Z,4.80
2022-12-03T06:45:35.076Z,9.30
2022-12-03T06:46:35.018Z,14.00
2022-12-03T06:47:35.065Z,11.80
2022-12-03T06:48:35.019Z,11.20
2022-12-03T06:49:35.019Z,8.90
2022-12-03T06:50:35.003Z,9.70
2022-12-03T06:51:34.980Z,10.80
2022-12-03T06:52:34.944Z,7.80
2022-12-03T06:53:35.002Z,14.80
2022-12-03T06:54:34.924Z,9.40
2022-12-03T06:55:34.968Z,4.80
2022-12-03T06:56:39.116Z,6.90
2022-12-03T06:57:34.947Z,11.80
2022-12-03T06:58:34.919Z,7.20
2022-12-03T06:59:35.080Z,5.20
2022-12-03T07:00:34.860Z,6.20
2022-12-03T07:01:34.943Z,7.70
2022-12-03T07:02:34.908Z,10.00
2022-12-03T07:03:34.895Z,5.10
2022-12-03T07:04:34.855Z,5.20
2022-12-03T07:05:34.836Z,7.60
2022-12-03T07:06:34.829Z,6.90
2022-12-03T07:07:34.912Z,9.30
2022-12-03T07:08:34.783Z,8.60
2022-12-03T07:09:34.820Z,12.30
2022-12-03T07:10:34.763Z,6.10
2022-12-03T07:11:34.795Z,9.30
2022-12-03T07:12:34.763Z,8.10
2022-12-03T07:13:34.762Z,6.70
2022-12-03T07:14:34.717Z,11.70
2022-12-03T07:15:34.773Z,6.50
2022-12-03T07:16:34.801Z,9.70
2022-12-03T07:17:34.705Z,19.10
2022-12-03T07:18:34.715Z,10.70
2022-12-03T07:19:34.705Z,11.50
2022-12-03T07:20:34.671Z,10.20
2022-12-03T07:21:34.713Z,10.50
2022-12-03T07:22:35.240Z,9.60
2022-12-03T07:23:34.693Z,16.20
2022-12-03T07:24:34.637Z,11.40
2022-12-03T07:25:34.683Z,14.30
2022-12-03T07:26:34.616Z,18.00
2022-12-03T07:27:34.616Z,20.70
2022-12-03T07:28:34.564Z,19.10
2022-12-03T07:29:34.611Z,8.90
2022-12-03T07:30:34.582Z,9.10
2022-12-03T07:31:34.656Z,9.90
2022-12-03T07:32:34.543Z,7.80
2022-12-03T07:33:34.648Z,7.50
2022-12-03T07:34:34.499Z,9.40
2022-12-03T07:35:34.558Z,11.00
2022-12-03T07:36:34.513Z,17.00
2022-12-03T07:37:34.511Z,10.20
2022-12-03T07:38:34.503Z,7.70
2022-12-03T07:39:34.499Z,14.30
2022-12-03T07:40:34.470Z,13.60
2022-12-03T07:41:34.485Z,15.10
2022-12-03T07:42:34.440Z,11.50
2022-12-03T07:43:34.478Z,11.60
2022-12-03T07:44:34.477Z,8.60
2022-12-03T07:45:34.534Z,11.90
2022-12-03T07:46:34.450Z,11.90
2022-12-03T07:47:34.537Z,7.70
2022-12-03T07:48:34.488Z,12.60
2022-12-03T07:49:34.491Z,10.10
2022-12-03T07:50:34.426Z,6.70
2022-12-03T07:51:34.395Z,10.50
2022-12-03T07:52:34.352Z,10.80
2022-12-03T07:53:34.411Z,8.80
2022-12-03T07:54:34.294Z,7.90
2022-12-03T07:55:34.364Z,6.80
2022-12-03T07:56:34.299Z,7.50
2022-12-03T07:57:34.319Z,12.10
2022-12-03T07:58:34.282Z,8.10
2022-12-03T07:59:34.285Z,5.70
2022-12-03T08:00:34.288Z,6.10
2022-12-03T08:01:34.499Z,8.30
2022-12-03T08:02:34.518Z,6.50
2022-12-03T08:03:34.253Z,6.60
2022-12-03T08:04:34.217Z,8.60
2022-12-03T08:05:34.228Z,5.70
2022-12-03T08:06:34.197Z,11.20
2022-12-03T08:07:34.274Z,6.00
2022-12-03T08:08:34.239Z,9.70
2022-12-03T08:09:34.242Z,10.10
2022-12-03T08:10:34.125Z,6.40
2022-12-03T08:11:34.170Z,10.50
2022-12-03T08:12:34.232Z,12.60
2022-12-03T08:13:34.137Z,13.40
2022-12-03T08:14:34.122Z,8.20
2022-12-03T08:15:39.338Z,19.50
2022-12-03T08:16:34.141Z,16.80
2022-12-03T08:17:34.123Z,12.40
2022-12-03T08:18:34.092Z,16.00
2022-12-03T08:19:34.058Z,11.30
2022-12-03T08:20:34.023Z,12.10
2022-12-03T08:21:34.103Z,9.00
2022-12-03T08:22:34.086Z,9.30
2022-12-03T08:23:34.038Z,12.10
2022-12-03T08:24:34.002Z,9.50
2022-12-03T08:25:34.026Z,9.50
2022-12-03T08:26:34.004Z,8.60
2022-12-03T08:27:39.320Z,7.50
2022-12-03T08:28:34.299Z,7.20
2022-12-03T08:29:33.984Z,7.60
2022-12-03T08:30:33.936Z,8.40
2022-12-03T08:31:34.051Z,19.60
2022-12-03T08:32:33.916Z,9.80
2022-12-03T08:33:34.018Z,11.30
2022-12-03T08:34:33.883Z,8.80
2022-12-03T08:35:34.037Z,11.40
2022-12-03T08:36:33.903Z,11.80
2022-12-03T08:37:35.315Z,16.80
2022-12-03T08:38:33.905Z,18.30
2022-12-03T08:39:33.887Z,16.70
2022-12-03T08:40:33.806Z,13.30
2022-12-03T08:41:33.833Z,17.60
2022-12-03T08:42:33.809Z,17.70
2022-12-03T08:43:33.831Z,31.20
2022-12-03T08:44:33.814Z,16.00
2022-12-03T08:45:33.828Z,17.00
2022-12-03T08:46:33.838Z,25.70
2022-12-03T08:47:33.755Z,16.90
2022-12-03T08:48:33.748Z,20.80
2022-12-03T08:49:33.745Z,14.00
2022-12-03T08:50:33.851Z,22.30
2022-12-03T08:51:33.785Z,27.20
2022-12-03T08:52:33.688Z,30.30
2022-12-03T08:53:33.707Z,29.90
2022-12-03T08:54:33.687Z,21.20
2022-12-03T08:55:33.744Z,23.00
2022-12-03T08:56:33.688Z,19.10
2022-12-03T08:57:33.651Z,20.20
2022-12-03T08:58:33.640Z,23.60
2022-12-03T08:59:33.650Z,25.80
2022-12-03T09:00:33.596Z,18.80
2022-12-03T09:01:33.761Z,25.30
2022-12-03T09:02:33.612Z,20.70
2022-12-03T09:03:33.625Z,17.60
2022-12-03T09:04:33.710Z,21.80
2022-12-03T09:05:33.559Z,15.10
2022-12-03T09:06:34.005Z,16.70
2022-12-03T09:07:33.589Z,20.10
2022-12-03T09:08:33.546Z,16.50
2022-12-03T09:09:33.515Z,17.30
2022-12-03T09:10:33.590Z,17.50
2022-12-03T09:11:33.510Z,32.40
2022-12-03T09:12:33.520Z,27.70
2022-12-03T09:13:33.490Z,37.40
2022-12-03T09:14:33.482Z,36.50
2022-12-03T09:16:23.958Z,24.80
2022-12-03T09:17:24.922Z,26.90
2022-12-03T09:18:24.763Z,27.90
2022-12-03T09:19:24.792Z,31.80
2022-12-03T09:20:24.788Z,29.30
2022-12-03T09:21:24.767Z,19.50
2022-12-03T09:22:24.758Z,21.90
2022-12-03T09:23:24.756Z,21.70
2022-12-03T09:24:24.690Z,17.40
2022-12-03T09:25:24.744Z,16.90
2022-12-03T09:26:24.701Z,17.80
2022-12-03T09:27:24.710Z,14.60
2022-12-03T09:28:24.673Z,15.20
2022-12-03T09:29:24.692Z,14.70
2022-12-03T09:30:24.623Z,13.60
2022-12-03T09:31:24.681Z,17.70
2022-12-03T09:32:24.730Z,17.80
2022-12-03T09:33:24.733Z,19.60
2022-12-03T09:34:24.619Z,14.90
2022-12-03T09:35:24.627Z,18.60
2022-12-03T09:36:24.559Z,12.40
2022-12-03T09:37:24.753Z,17.90
2022-12-03T09:38:24.597Z,16.60
2022-12-03T09:39:24.563Z,12.70
2022-12-03T09:40:24.560Z,10.70
2022-12-03T09:41:24.869Z,16.70
2022-12-03T09:42:24.522Z,12.20
2022-12-03T09:43:33.468Z,13.40
2022-12-03T09:44:24.533Z,16.90
2022-12-03T09:45:24.535Z,11.40
2022-12-03T09:46:24.572Z,11.10
2022-12-03T09:47:24.554Z,14.00
2022-12-03T09:48:24.435Z,9.00
2022-12-03T09:49:24.475Z,11.80
2022-12-03T09:50:24.415Z,12.50
2022-12-03T09:51:24.498Z,10.90
2022-12-03T09:52:24.929Z,10.80
2022-12-03T09:53:24.408Z,9.20
2022-12-03T09:54:24.423Z,9.60
2022-12-03T09:55:24.411Z,9.60
2022-12-03T09:56:24.468Z,10.60
2022-12-03T09:57:24.410Z,9.80
2022-12-03T09:58:24.334Z,8.00
2022-12-03T09:59:24.339Z,18.00
2022-12-03T10:00:24.343Z,9.50
2022-12-03T10:01:29.220Z,10.10
2022-12-03T10:02:24.508Z,9.50
2022-12-03T10:03:29.664Z,9.50
2022-12-03T10:04:24.459Z,9.10
2022-12-03T10:05:24.277Z,8.80
2022-12-03T10:06:24.275Z,10.70
2022-12-03T10:07:24.521Z,9.60
2022-12-03T10:08:28.089Z,10.00
2022-12-03T10:09:24.286Z,8.80
2022-12-03T10:10:24.805Z,7.20
2022-12-03T10:11:24.233Z,8.80
2022-12-03T10:12:24.293Z,8.70
2022-12-03T10:13:25.987Z,8.90
2022-12-03T10:14:24.507Z,8.40
2022-12-03T10:15:24.226Z,7.60
2022-12-03T10:16:24.220Z,7.10
2022-12-03T10:17:24.304Z,8.30
2022-12-03T10:18:24.123Z,8.00
2022-12-03T10:19:24.199Z,8.60
2022-12-03T10:20:24.174Z,8.90
2022-12-03T10:21:24.263Z,9.50
2022-12-03T10:22:24.143Z,7.50
2022-12-03T10:23:24.115Z,9.10
2022-12-03T10:24:24.095Z,8.10
2022-12-03T10:25:24.096Z,8.00
2022-12-03T10:26:24.908Z,8.20
2022-12-03T10:27:24.033Z,7.90
2022-12-03T10:28:24.056Z,9.20
2022-12-03T10:29:28.371Z,7.70
2022-12-03T10:30:24.029Z,10.30
2022-12-03T10:31:24.107Z,7.60
2022-12-03T10:32:24.021Z,7.80
2022-12-03T10:33:23.964Z,8.90
2022-12-03T10:34:23.981Z,9.00
2022-12-03T10:35:25.022Z,8.20
2022-12-03T10:36:23.948Z,7.20
2022-12-03T10:37:24.007Z,7.90
2022-12-03T10:38:23.919Z,6.40
2022-12-03T10:39:24.019Z,7.30
2022-12-03T10:40:23.921Z,7.60
2022-12-03T10:41:23.877Z,8.10
2022-12-03T10:42:23.923Z,8.80
2022-12-03T10:43:23.924Z,8.40
2022-12-03T10:44:23.974Z,6.80
2022-12-03T10:45:23.868Z,7.40
2022-12-03T10:46:23.952Z,7.50
2022-12-03T10:47:23.997Z,6.90
2022-12-03T10:48:23.864Z,8.40
2022-12-03T10:49:23.816Z,7.50
2022-12-03T10:50:23.892Z,8.80
2022-12-03T10:51:23.805Z,7.50
2022-12-03T10:52:25.951Z,6.90
2022-12-03T10:53:23.755Z,8.50
2022-12-03T10:54:23.886Z,7.10
2022-12-03T10:55:23.749Z,7.90
2022-12-03T10:56:23.743Z,7.30
2022-12-03T10:57:23.779Z,6.10
2022-12-03T10:58:23.784Z,6.80
2022-12-03T10:59:23.690Z,7.50
2022-12-03T11:00:23.707Z,7.40
2022-12-03T11:01:23.776Z,11.40
2022-12-03T11:02:23.693Z,7.20
2022-12-03T11:03:23.788Z,6.30
2022-12-03T11:04:23.633Z,6.10
2022-12-03T11:05:23.621Z,7.00
2022-12-03T11:06:23.647Z,6.60
2022-12-03T11:07:23.630Z,6.00
2022-12-03T11:08:23.810Z,5.80
2022-12-03T11:09:23.603Z,6.20
2022-12-03T11:10:23.594Z,7.30
2022-12-03T11:11:23.549Z,7.50
2022-12-03T11:12:23.595Z,7.20
2022-12-03T11:13:23.596Z,5.90
2022-12-03T11:14:23.614Z,5.90
2022-12-03T11:15:23.551Z,8.20
2022-12-03T11:16:23.558Z,9.30
2022-12-03T11:17:23.513Z,6.50
2022-12-03T11:18:23.553Z,6.30
2022-12-03T11:19:23.512Z,5.50
2022-12-03T11:20:23.495Z,6.30
2022-12-03T11:21:23.475Z,7.30
2022-12-03T11:22:23.474Z,6.00
2022-12-03T11:23:23.449Z,6.40
2022-12-03T11:24:23.424Z,6.10
2022-12-03T11:25:23.427Z,7.30
2022-12-03T11:26:23.418Z,6.30
2022-12-03T11:27:23.403Z,6.70
2022-12-03T11:28:23.503Z,5.90
2022-12-03T11:29:23.368Z,11.00
2022-12-03T11:30:23.385Z,6.60
2022-12-03T11:31:23.484Z,6.30
2022-12-03T11:32:25.945Z,5.40
2022-12-03T11:33:23.454Z,6.50
2022-12-03T11:34:23.320Z,6.70
2022-12-03T11:35:23.300Z,6.50
2022-12-03T11:36:41.987Z,6.90
2022-12-03T11:37:23.382Z,7.80
2022-12-03T11:38:23.365Z,8.30
2022-12-03T11:39:23.254Z,6.60
2022-12-03T11:40:23.323Z,6.50
2022-12-03T11:41:23.297Z,7.40
2022-12-03T11:42:23.257Z,8.80
2022-12-03T11:43:23.241Z,6.90
2022-12-03T11:44:23.217Z,12.30
2022-12-03T11:45:23.234Z,10.40
2022-12-03T11:46:23.246Z,7.50
2022-12-03T11:47:23.190Z,12.10
2022-12-03T11:48:23.262Z,9.20
2022-12-03T11:49:23.161Z,10.10
2022-12-03T11:50:23.211Z,9.90
2022-12-03T11:51:23.217Z,13.00
2022-12-03T11:52:23.125Z,10.70
2022-12-03T11:53:23.117Z,10.60
2022-12-03T11:54:23.141Z,15.50
2022-12-03T11:55:23.116Z,12.40
2022-12-03T11:56:23.105Z,11.10
2022-12-03T11:57:23.231Z,12.10
2022-12-03T11:58:23.100Z,11.60
2022-12-03T11:59:23.046Z,11.70
2022-12-03T12:00:23.107Z,13.20
2022-12-03T12:01:23.078Z,13.80
2022-12-03T12:02:23.125Z,13.60
2022-12-03T12:03:23.206Z,12.90
2022-12-03T12:04:23.060Z,13.50
2022-12-03T12:05:23.010Z,15.90
2022-12-03T12:06:23.013Z,17.40
2022-12-03T12:07:22.963Z,14.40
2022-12-03T12:08:23.027Z,16.50
2022-12-03T12:09:23.002Z,16.00
2022-12-03T12:10:22.933Z,15.60
2022-12-03T12:11:22.957Z,13.90
2022-12-03T12:12:22.996Z,15.80
2022-12-03T12:13:22.906Z,14.70
2022-12-03T12:14:22.934Z,16.80
2022-12-03T12:15:22.933Z,17.90
2022-12-03T12:16:23.299Z,16.30
2022-12-03T12:17:22.880Z,16.80
2022-12-03T12:18:22.851Z,14.60
2022-12-03T12:19:22.947Z,16.90
2022-12-03T12:20:22.859Z,15.00
2022-12-03T12:21:22.845Z,15.70
2022-12-03T12:22:22.840Z,15.90
2022-12-03T12:23:22.860Z,17.90
2022-12-03T12:24:22.811Z,16.60
2022-12-03T12:25:22.832Z,21.20
2022-12-03T12:26:22.870Z,15.20
2022-12-03T12:27:22.774Z,17.40
2022-12-03T12:28:22.854Z,17.10
2022-12-03T12:29:22.800Z,17.60
2022-12-03T12:30:22.773Z,18.90
2022-12-03T12:31:22.798Z,21.10
2022-12-03T12:32:22.858Z,15.70
2022-12-03T12:33:22.735Z,15.70
2022-12-03T12:34:22.685Z,19.90
2022-12-03T12:35:22.984Z,16.20
2022-12-03T12:36:22.761Z,18.90
2022-12-03T12:37:22.655Z,18.40
2022-12-03T12:38:22.778Z,16.70
2022-12-03T12:39:22.676Z,15.60
2022-12-03T12:40:22.624Z,19.20
2022-12-03T12:41:22.602Z,18.00
2022-12-03T12:42:22.634Z,17.70
2022-12-03T12:43:24.393Z,16.20
2022-12-03T12:44:22.593Z,16.00
2022-12-03T12:45:22.603Z,16.40
2022-12-03T12:46:47.433Z,21.20
2022-12-03T12:47:22.628Z,17.40
2022-12-03T12:48:22.607Z,19.70
2022-12-03T12:49:22.564Z,18.70
2022-12-03T12:50:22.555Z,17.70
2022-12-03T12:51:22.568Z,16.70
2022-12-03T12:52:22.495Z,18.80
2022-12-03T12:53:22.497Z,21.60
2022-12-03T12:54:22.468Z,21.30
2022-12-03T12:55:22.499Z,13.90
2022-12-03T12:56:22.618Z,17.20
2022-12-03T12:57:22.491Z,19.30
2022-12-03T12:58:22.435Z,17.20
2022-12-03T12:59:22.433Z,19.90
2022-12-03T13:00:22.441Z,17.40
2022-12-03T13:01:22.499Z,17.30
2022-12-03T13:02:22.447Z,17.90
2022-12-03T13:03:22.392Z,21.10
2022-12-03T13:04:22.381Z,22.60
2022-12-03T13:05:22.370Z,18.60
2022-12-03T13:06:22.345Z,19.00
2022-12-03T13:07:22.339Z,21.80
2022-12-03T13:08:22.487Z,18.40
2022-12-03T13:09:22.322Z,16.60
2022-12-03T13:10:22.361Z,27.60
2022-12-03T13:11:22.322Z,19.60